createdAt,value
2023-04-08T00:18:09.156Z,7.4
2023-04-08T00:37:22.654Z,7.6
2023-04-08T00:56:35.091Z,7.2
2023-04-08T01:15:45.158Z,6.8
2023-04-08T01:34:57.624Z,6.7
2023-04-08T01:54:10.227Z,6.5
2023-04-08T02:13:22.778Z,6.3
2023-04-08T02:32:33.359Z,6
2023-04-08T02:51:46.929Z,5.8
2023-04-08T03:10:56.260Z,5
2023-04-08T03:30:08.460Z,4.9
2023-04-08T03:49:17.963Z,4.5
2023-04-08T04:08:31.150Z,4.5
2023-04-08T04:27:44.830Z,4.6
2023-04-08T04:46:57.870Z,4.7
2023-04-08T05:06:07.355Z,4.6
2023-04-08T05:25:20.744Z,5.3
2023-04-08T05:44:34.780Z,5.4
2023-04-08T06:03:48.434Z,5.4
2023-04-08T06:23:03.848Z,6
2023-04-08T06:42:17.050Z,6.3
2023-04-08T07:01:29.476Z,6
2023-04-08T07:20:43.130Z,6.8
2023-04-08T07:39:57.419Z,7.1
2023-04-08T07:59:10.495Z,7.2
2023-04-08T08:18:23.645Z,7.3
2023-04-08T08:37:40.547Z,8.2
2023-04-08T08:56:54.630Z,8.8
2023-04-08T09:16:07.553Z,8.9
2023-04-08T09:35:24.028Z,9.2
2023-04-08T09:54:36.526Z,9.3
2023-04-08T10:13:51.713Z,9.7
2023-04-08T10:33:04.624Z,9.6
2023-04-08T10:52:18.319Z,9.7
2023-04-08T11:11:31.671Z,9.7
2023-04-08T11:30:46.071Z,10
2023-04-08T11:50:01.380Z,10.5
2023-04-08T12:09:16.710Z,11.3
2023-04-08T12:28:31.499Z,11.7
2023-04-08T12:47:46.974Z,12.3
2023-04-08T13:07:05.770Z,13.8
2023-04-08T13:26:14.667Z,12.8
2023-04-08T13:45:26.487Z,12.3
2023-04-08T14:04:39.816Z,12.3
2023-04-08T14:23:55.140Z,12.8
2023-04-08T14:43:08.921Z,12.6
2023-04-08T15:02:24.058Z,13.4
2023-04-08T15:21:34.928Z,12.4
2023-04-08T15:40:48.231Z,12.8
2023-04-08T16:00:00.506Z,12.6
2023-04-08T16:19:11.846Z,12.5
2023-04-08T16:38:24.721Z,12.3
2023-04-08T16:57:39.844Z,12.3
2023-04-08T17:16:53.920Z,11.5
2023-04-08T17:36:05.115Z,11.3
2023-04-08T17:55:16.067Z,10.8
2023-04-08T18:14:28.613Z,10.4
2023-04-08T18:33:39.427Z,9.8
2023-04-08T18:52:50.410Z,9.3
2023-04-08T19:12:02.618Z,8.7
2023-04-08T19:31:14.733Z,8.6
2023-04-08T19:50:25.357Z,8.2
2023-04-08T20:09:38.174Z,8.1
2023-04-08T20:28:50.939Z,7.7
2023-04-08T20:48:02.925Z,7.6
2023-04-08T21:07:15.522Z,7.3
2023-04-08T21:26:26.697Z,6.7
2023-04-08T21:45:40.435Z,6.9
2023-04-08T22:04:51.538Z,6.7
2023-04-08T22:24:03.219Z,6
2023-04-08T22:43:16.642Z,5.9
2023-04-08T23:02:29.779Z,5.8
2023-04-08T23:21:41.892Z,5.6
2023-04-08T23:40:53.247Z,5.5
